AirNav   TITAN Aviation Fuels
 
 1620 users online  

FD32 Gac Waterfront Heliport
Navarre, Florida, USA

GOING TO NAVARRE?


FAA INFORMATION EFFECTIVE 15 JULY 2021

Location

FAA Identifier: FD32
Lat/Long: 30-24-02.2000N 086-51-37.9000W
30-24.036667N 086-51.631667W
30.4006111,-86.8605278
(estimated)
Elevation: 6 ft. / 2 m (estimated)
From city: 3 miles SE of NAVARRE, FL
Time zone: UTC -5 (UTC -6 during Standard Time)
Zip code: 32566

Heliport Operations

Heliport use: Private use. Permission required prior to landing
Activation date: 07/2017
Control tower: no
ARTCC: JACKSONVILLE CENTER
FSS: GAINESVILLE FLIGHT SERVICE STATION
Attendance: 
Wind indicator: yes
Segmented circle: no

Heliport Communications

WX ASOS at PNS (17 nm W): 121.25 (850-436-4799)
WX ASOS at NDZ (20 nm NW): PHONE 850-623-7210

Nearby radio navigation aids

VOR radial/distance  VOR name  Freq  Var
NUNr099/(25.0)SAUFLEY VOR108.8001E
CEWr197/27.2CRESTVIEW VORTAC115.9003E

 
NDB name  Hdg/Dist  Freq  Var  ID
PICKENS100/16.632602WPKZ .--. -.- --..

Heliport Services

Runway Information

Helipad H1

Dimensions: 36 x 36 ft. / 11 x 11 m
Surface: concrete, in excellent condition
Latitude: 30-24.036667N
Longitude: 086-51.631667W
Elevation: 6.0 ft.
Traffic pattern: leftleft

Heliport Ownership and Management from official FAA records

Ownership: Privately-owned
Owner: GAC PROPERTY MANAGEMENT LLC
2078 BAHAMA DR.
NAVARRE, FL 32566
Phone 850-685-9801
Manager: GREG BRITTON
2078 BAHAMA DR.
NAVARRE, FL 32566
Phone 850-685-9801

Heliport Operational Statistics

Aircraft based on the field: 1
Helicopters: 1
    

Additional Remarks

FOR CD CTC PENSACOLA APCH AT 850-266-6884 OR 850-266-6885.

Instrument Procedures

There are no published instrument procedures at FD32.

Some nearby airports with instrument procedures:

KHRT - Hurlburt Field Airport (9 nm E)
2R4 - Peter Prince Field Airport (16 nm NW)
KPNS - Pensacola International Airport (17 nm W)
KVPS - Eglin Air Force Base/Destin-Fort Walton Beach Airport (18 nm E)
KNDZ - Whiting Field Naval Air Station South (20 nm NW)
 
Loc | Ops | Rwys | IFR | FBO | Links
Com | Nav | Svcs | Stats | Notes
Aerial photo
No photo
 
Airport distance calculator
Flying to Gac Waterfront Heliport? Find the distance to fly.

From to FD32

Sunrise and sunset
Times for 26-Jul-2021
 Local
(UTC-5)
 Zulu
(UTC)
Morning civil twilight05:3710:37
Sunrise06:0311:03
Sunset19:4500:45
Evening civil twilight20:1101:11

Current date and time
Zulu (UTC)  26-Jul-2021 19:32:54
Local (UTC-5)  26-Jul-2021 14:32:54
 
METAR
KHRT 
10nm E 
261856Z 19009KT 10SM SCT190 32/24 A2995 RMK AO2A SLP143 T03240239 $
KPNS 
17nm W 
261853Z 11004KT 8SM FEW043 34/24 A2995 RMK AO2 SLP144 T03390239
KVPS 
18nm E 
261856Z AUTO 16009KT 10SM SCT050 BKN065 BKN090 BKN130 34/23 A2994 RMK AO2 SLP144 T03400230 TSNO $
KNDZ 
20nm NW 
261856Z 31003KT 8SM SCT045 SCT250 34/23 A2996 RMK SLP128 T03390233
TAF
KHRT 
10nm E 
261800Z 2618/2724 19009KT 9999 SCT040 SCT200 QNH2991INS BECMG 2700/2701 28006KT 9999 SKC QNH2993INS BECMG 2712/2713 18009KT 9999 SCT040 QNH2999INS TX32/2618Z TN24/2710Z
KPNS 
17nm W 
261749Z 2618/2718 18005KT P6SM SCT030 SCT090 FM261900 21008KT P6SM VCTS FEW050CB SCT100 FM270100 24006KT P6SM FEW250 FM271200 27004KT P6SM FEW150
KVPS 
18nm E 
261749Z 2617/2723 33009KT 9999 SCT040 BKN200 QNH2992INS WND 18009KT AFT 2618 BECMG 2705/2706 30006KT 9999 FEW040 SCT150 QNH2994INS BECMG 2718/2719 22009KT 9999 VCTS SCT045CB BKN150 QNH2996INS TEMPO 2719/2723 22010G15KT 6000 -TSRA BKN035CB TX34/2618Z TN24/2710Z
NOTAMs
Click for the latest NOTAMs
NOTAMs are issued by the DoD/FAA and will open in a separate window not controlled by AirNav.

 

 
 

Would you like to see your business listed on this page?

 If your business provides an interesting product or service to pilots, flight crews, aircraft, or users of the Gac Waterfront Heliport, you should consider listing it here.  To start the listing process, click on the button below
 
Add a business
 

Other Pages about Gac Waterfront Heliport

Update a link
 
Copyright © AirNav, LLC. All rights reserved. Privacy Policy  Contact